Terminal Aerodrome Forecast
Issued by NWS

Home | Current Version | Previous Version | Text Only | Print | Product List | Glossary On
Versions: 1 2 3 4 5 6 7 8 9 10 11 12 13
273
FTUS44 KJAN 302320
TAFHKS
TAF
KHKS 302320Z 3100/3124 22007KT P6SM VCSH SCT050 SCT100
     FM310200 26006KT P6SM FEW250=

USA.gov is the U.S. government's official web portal to all federal, state and local government web resources and services.